x

9076027 - West Neebish, Mi (wnem4) Weather Station

12:18pm - Wed 13th Dec 2017 All times are CST. -6 hours from GMT.

  • Wind
    5mph, 8mph gusts
  • Air Temp 5°f
  • Sea Pressure 1005.4mb
  • 9076027 - West Neebish, Mi
  • 9076027 - West Neebish, Mi

More Historic Weather Station data

Upgrade to MSW Pro to gain access to the past 30 days of data for over 8000 Wavebouys and Weather Stations around the globe.

Join

Comparision Forecast

View Surf forecast
   
Wed 12/13 12:18pm 5 8 mph 1005.4mb 5f
12:12pm 5 7 mph 1005.4mb 5f
12:06pm 3 6 mph 1005.5mb 5f
12:00pm 3 6 mph 1005.6mb 4f
11:54am 3 8 mph 1005.7mb 4f
11:48am 7 8 mph 1005.9mb 3f
11:42am 3 7 mph 1005.9mb 3f
11:36am 3 6 mph 1006mb 4f
11:30am 6 8 mph 1006mb 3f
11:24am 3 6 mph 1006.2mb 4f
11:06am 6 7 mph 1006.6mb 2f
11:00am 3 6 mph 1006.7mb 2f
10:54am 2 5 mph 1006.9mb 2f
10:48am 1 6 mph 1006.9mb 3f
10:42am 3 6 mph 1007mb 2f
10:36am 5 6 mph 1007.1mb 1f
10:30am 3 7 mph 1007.2mb 1f
10:24am 5 7 mph 1007.3mb -
10:18am 6 7 mph 1007.4mb -
10:12am 3 6 mph 1007.5mb 1f
10:06am 5 8 mph 1007.6mb -1f
10:00am 6 8 mph 1007.6mb -1f
9:54am 6 8 mph 1007.6mb -1f
9:48am 5 7 mph 1007.6mb -1f
9:42am 6 9 mph 1007.5mb -2f
9:36am 3 8 mph 1007.6mb -2f
9:30am 6 9 mph 1007.6mb -3f
9:24am 7 9 mph 1007.7mb -3f
9:18am 5 9 mph 1007.7mb -3f
9:12am 6 9 mph 1007.8mb -4f
9:06am 6 8 mph 1007.8mb -4f
9:00am 6 8 mph 1007.9mb -5f
8:54am 3 6 mph 1008mb -5f
8:48am 5 6 mph 1008.2mb -5f
8:42am 2 5 mph 1008.2mb -5f
8:36am 6 7 mph 1008.2mb -5f
8:30am 3 6 mph 1008.1mb -6f
8:24am 5 7 mph 1008.2mb -6f
8:18am 3 6 mph 1008.1mb -6f
8:12am 3 5 mph 1008.1mb -7f
8:06am 3 5 mph 1008.1mb -7f
8:00am 3 6 mph 1008.2mb -7f
7:54am 3 5 mph 1008.2mb -7f
7:48am 5 6 mph 1008.2mb -8f
7:42am 2 3 mph 1008.4mb -8f
7:36am 1 3 mph 1008.5mb -8f
7:30am 2 5 mph 1008.6mb -8f
7:24am 3 5 mph 1008.7mb -8f
7:18am 2 5 mph 1008.8mb -8f
7:12am 3 5 mph 1008.9mb -8f
7:06am 3 6 mph 1008.8mb -8f
7:00am 1 6 mph 1008.9mb -8f
6:54am 3 6 mph 1008.7mb -8f
6:48am 3 5 mph 1008.6mb -8f
6:42am 2 5 mph 1008.6mb -8f
6:36am 2 6 mph 1008.6mb -8f
6:30am 3 5 mph 1008.5mb -8f
6:24am 2 5 mph 1008.6mb -8f
6:18am 2 5 mph 1008.6mb -8f
6:12am 2 5 mph 1008.8mb -8f
6:06am 2 3 mph 1008.9mb -8f
6:00am 2 3 mph 1008.8mb -8f
5:54am 1 3 mph 1008.9mb -8f
5:48am 3 5 mph 1009mb -8f
5:42am 3 5 mph 1009.1mb -8f
5:36am 3 5 mph 1009.1mb -8f
5:30am 2 3 mph 1009.1mb -8f
5:24am 2 3 mph 1009.2mb -9f
5:18am 3 3 mph 1009.1mb -9f
5:12am 2 2 mph 1009.2mb -9f
5:06am 2 3 mph 1009.2mb -8f
5:00am 2 3 mph 1009.2mb -7f
4:48am 2 3 mph 1009.4mb -7f
4:42am 2 3 mph 1009.4mb -7f
4:36am 3 5 mph 1009.4mb -9f
4:30am 2 3 mph 1009.5mb -8f
4:24am 1 2 mph 1009.5mb -8f
4:18am 2 3 mph 1009.6mb -8f
4:12am 2 3 mph 1009.6mb -8f
4:06am 3 5 mph 1009.7mb -9f
4:00am 2 3 mph 1009.8mb -9f
3:54am 3 3 mph 1009.9mb -7f
3:48am 2 3 mph 1010mb -6f
3:42am 1 2 mph 1010mb -8f
3:36am 2 2 mph 1010mb -8f
3:30am 2 3 mph 1009.9mb -8f
3:24am 3 5 mph 1010mb -8f
3:18am 5 5 mph 1010mb -8f
3:12am 5 5 mph 1010mb -8f
3:06am 5 6 mph 1010.1mb -8f
3:00am 5 5 mph 1010.2mb -8f
2:54am 5 5 mph 1010.2mb -8f
2:48am 2 3 mph 1010.3mb -8f
2:42am 3 3 mph 1010.3mb -7f
2:36am 3 5 mph 1010.3mb -7f
2:30am 3 5 mph 1010.3mb -7f
2:24am 3 6 mph 1010.4mb -7f
2:18am 6 6 mph 1010.4mb -7f
2:12am 6 6 mph 1010.5mb -6f
2:06am 5 6 mph 1010.6mb -7f
2:00am 3 5 mph 1010.7mb -8f
1:54am 2 5 mph 1010.7mb -7f
1:48am 3 5 mph 1010.6mb -7f
1:42am 5 5 mph 1010.6mb -6f
1:36am 3 5 mph 1010.5mb -7f
1:30am 3 6 mph 1010.4mb -7f
1:24am 3 5 mph 1010.4mb -7f
1:18am 2 3 mph 1010.3mb -6f
1:12am 2 3 mph 1010.3mb -6f
1:06am 1 6 mph 1010.4mb -6f
1:00am 6 7 mph 1010.3mb -6f
12:54am 3 6 mph 1010.3mb -7f
12:48am 5 5 mph 1010.4mb -6f
12:42am 3 3 mph 1010.5mb -6f
12:36am 3 5 mph 1010.5mb -7f
12:30am 3 6 mph 1010.5mb -6f
12:24am 5 6 mph 1010.6mb -6f
12:18am 5 6 mph 1010.7mb -6f
12:12am 3 5 mph 1010.7mb -7f
12:06am 3 3 mph 1010.7mb -6f
12:00am 2 3 mph 1010.8mb -6f
Tue 12/12 11:54pm 1 2 mph 1010.8mb -7f
11:48pm 2 3 mph 1010.8mb -
11:42pm 2 3 mph 1010.9mb -
11:36pm 2 3 mph 1010.9mb -
11:30pm 2 3 mph 1010.9mb -4f
11:24pm 2 2 mph 1010.9mb -4f
11:18pm 1 3 mph 1010.9mb -4f
11:12pm 2 6 mph 1011mb -4f
11:06pm 5 7 mph 1011mb -4f
11:00pm 6 7 mph 1011.2mb -4f
10:54pm 6 8 mph 1011.2mb -4f
10:48pm 6 7 mph 1011.3mb -4f
10:42pm 6 7 mph 1011.3mb -4f
10:36pm 6 7 mph 1011.4mb -4f
10:30pm 5 6 mph 1011.4mb -4f
10:24pm 3 5 mph 1011.5mb -4f
10:18pm 3 5 mph 1011.6mb -3f
10:12pm 2 6 mph 1011.6mb -3f
10:06pm 5 7 mph 1011.6mb -3f
10:00pm 3 5 mph 1011.7mb -3f
9:54pm 3 5 mph 1011.8mb -3f
9:48pm 2 6 mph 1011.9mb -2f
9:42pm 3 5 mph 1012mb -2f
9:36pm 3 6 mph 1012mb -2f
9:30pm 3 6 mph 1012.1mb -1f
9:24pm 5 7 mph 1012.1mb -1f
9:18pm 3 8 mph 1012.1mb -1f
9:12pm 6 8 mph 1012.2mb -1f
9:06pm 6 10 mph 1012.2mb -
9:00pm 7 10 mph 1012.2mb -
8:54pm 6 8 mph 1012.3mb -
8:48pm 6 9 mph 1012.4mb -
8:42pm 6 9 mph 1012.4mb -
8:36pm 6 9 mph 1012.5mb 1f
8:30pm 6 10 mph 1012.5mb -
8:24pm 6 10 mph 1012.5mb -
8:18pm 6 8 mph 1012.5mb 1f
8:12pm 7 13 mph 1012.5mb 1f
8:06pm 6 11 mph 1012.6mb 1f
8:00pm 7 11 mph 1012.6mb 1f
7:54pm 7 14 mph 1012.6mb 1f
7:48pm 8 14 mph 1012.6mb 1f
7:42pm 8 14 mph 1012.7mb 1f
7:36pm 6 14 mph 1012.7mb 1f
7:30pm 7 11 mph 1012.8mb 1f
7:24pm 8 11 mph 1012.9mb 1f
7:18pm 7 16 mph 1012.8mb 2f
7:12pm 8 13 mph 1012.8mb 2f
7:06pm 8 14 mph 1012.8mb 3f
7:00pm 7 13 mph 1012.9mb 3f
6:54pm 8 14 mph 1012.8mb 3f
6:48pm 7 11 mph 1012.8mb 3f
6:42pm 8 15 mph 1012.7mb 3f
6:36pm 10 15 mph 1012.7mb 3f
6:30pm 10 13 mph 1012.8mb 3f
6:24pm 10 17 mph 1012.9mb 4f
6:18pm 8 14 mph 1012.8mb 4f
6:12pm 9 14 mph 1012.8mb 4f
6:06pm 10 16 mph 1012.7mb 4f
6:00pm 9 14 mph 1012.8mb 4f
5:54pm 9 14 mph 1012.8mb 4f
5:48pm 8 13 mph 1012.8mb 4f
5:42pm 9 14 mph 1012.8mb 4f
5:36pm 9 13 mph 1012.7mb 5f
5:30pm 9 13 mph 1012.7mb 5f
5:24pm 8 17 mph 1012.6mb 6f
5:18pm 10 14 mph 1012.5mb 6f
5:12pm 11 15 mph 1012.5mb 6f
5:06pm 11 18 mph 1012.5mb 6f
5:00pm 14 16 mph 1012.6mb 6f
4:54pm 13 17 mph 1012.6mb 6f
4:48pm 13 16 mph 1012.6mb 6f
4:42pm 11 16 mph 1012.5mb 6f
4:36pm 11 15 mph 1012.4mb 6f
4:30pm 13 17 mph 1012.4mb 6f
4:24pm 14 17 mph 1012.3mb 6f
4:18pm 14 22 mph 1012.2mb 6f
4:12pm 13 17 mph 1012.1mb 6f
4:06pm 13 16 mph 1012.1mb 6f
4:00pm 14 16 mph 1012mb 6f
3:54pm 14 17 mph 1012.1mb 6f
3:48pm 14 16 mph 1012mb 7f
3:42pm 14 17 mph 1012mb 7f
3:36pm 14 17 mph 1012mb 7f
3:30pm 14 18 mph 1012mb 7f
3:24pm 14 18 mph 1012mb 7f
3:18pm 11 20 mph 1011.9mb 7f
3:12pm 11 17 mph 1011.9mb 7f
3:06pm 14 17 mph 1011.9mb 7f
3:00pm 8 15 mph 1011.9mb 8f
2:54pm 13 16 mph 1011.8mb 7f
2:48pm 16 18 mph 1011.9mb 6f
2:42pm 14 18 mph 1011.9mb 7f
2:36pm 15 18 mph 1011.9mb 7f
2:30pm 13 18 mph 1011.9mb 7f
2:24pm 11 17 mph 1011.8mb 7f
2:18pm 13 17 mph 1011.8mb 7f
2:12pm 11 18 mph 1011.8mb 7f
2:06pm 13 20 mph 1011.8mb 7f
2:00pm 15 20 mph 1011.7mb 7f
1:54pm 14 21 mph 1011.7mb 6f
1:48pm 14 18 mph 1011.7mb 6f
1:42pm 15 18 mph 1011.6mb 7f
1:36pm 16 20 mph 1011.7mb 6f
1:30pm 13 20 mph 1011.8mb 6f
1:24pm 15 21 mph 1011.8mb 6f
1:18pm 14 21 mph 1011.8mb 6f
1:12pm 14 22 mph 1011.8mb 6f
1:06pm 17 22 mph 1011.8mb 6f
1:00pm 14 23 mph 1011.8mb 6f
12:54pm 15 22 mph 1011.7mb 6f
12:48pm 15 21 mph 1011.7mb 6f
12:42pm 16 20 mph 1011.7mb 6f
12:36pm 13 18 mph 1011.7mb 6f
12:30pm 15 21 mph 1011.8mb 5f
12:24pm 16 21 mph 1011.8mb 5f
12:18pm 15 20 mph 1011.9mb 5f
12:12pm 14 22 mph 1012mb 5f
12:06pm 15 18 mph 1012mb 6f
12:00pm 14 21 mph 1012mb 5f
11:54am 17 23 mph 1012.1mb 4f
11:48am 20 25 mph 1012mb 4f
11:42am 17 22 mph 1012.1mb 4f
11:36am 16 25 mph 1012mb 4f
11:30am 16 22 mph 1012mb 4f
11:24am 14 21 mph 1012mb 5f
11:18am 18 23 mph 1012mb 4f
11:12am 16 23 mph 1012.1mb 4f
11:06am 18 23 mph 1012.1mb 4f
11:00am 18 24 mph 1012.2mb 3f
10:54am 16 23 mph 1012.3mb 3f
10:48am 20 26 mph 1012.3mb 4f
10:42am 14 24 mph 1012.3mb 3f
10:36am 17 24 mph 1012.3mb 3f
10:30am 18 25 mph 1012.4mb 2f
10:24am 16 26 mph 1012.4mb 3f
10:18am 20 25 mph 1012.5mb 3f
10:12am 20 28 mph 1012.6mb 2f
10:06am 20 29 mph 1012.7mb 2f
10:00am 17 29 mph 1012.7mb 2f
9:54am 20 31 mph 1012.7mb 2f
9:48am 21 26 mph 1012.7mb 1f
9:42am 22 28 mph 1012.9mb 2f
9:36am 22 28 mph 1012.9mb 1f
9:30am 18 25 mph 1012.9mb 1f
9:24am 21 29 mph 1013mb 1f
9:18am 20 25 mph 1013mb 1f
9:12am 22 26 mph 1013mb 1f
9:06am 22 28 mph 1012.9mb 1f
9:00am 20 25 mph 1012.9mb 1f
8:54am 17 30 mph 1012.9mb 1f
8:48am 20 26 mph 1012.9mb 1f
8:42am 18 26 mph 1012.8mb 1f
8:36am 17 25 mph 1012.7mb 1f
8:30am 20 25 mph 1012.7mb 1f
8:24am 17 23 mph 1012.6mb 1f
8:18am 18 24 mph 1012.7mb 1f
8:12am 18 26 mph 1012.7mb -
8:06am 18 26 mph 1012.7mb 1f
8:00am 21 25 mph 1012.6mb 1f
7:54am 18 22 mph 1012.7mb 1f
7:48am 18 23 mph 1012.7mb 1f
7:42am 16 23 mph 1012.7mb 1f
7:36am 16 22 mph 1012.6mb 1f
7:30am 18 24 mph 1012.5mb 1f
7:24am 20 22 mph 1012.4mb 1f
7:18am 21 25 mph 1012.3mb 1f
7:12am 18 23 mph 1012.3mb 1f
7:06am 17 25 mph 1012.3mb 1f
7:00am 17 23 mph 1012.2mb 2f
6:54am 20 30 mph 1012.2mb 1f
6:48am 24 33 mph 1012.2mb 2f
6:42am 21 36 mph 1012.1mb 2f
6:36am 23 34 mph 1012mb 2f
6:30am 16 23 mph 1012mb 2f
6:24am 16 21 mph 1011.9mb 2f
6:18am 18 30 mph 1011.8mb 2f
6:12am 16 20 mph 1011.7mb 2f
6:06am 15 31 mph 1011.6mb 2f
6:00am 29 44 mph 1011.5mb 3f
5:54am 22 53 mph 1011.4mb 3f
5:48am 20 26 mph 1011.4mb 2f
5:42am 20 25 mph 1011.4mb 2f
5:36am 16 21 mph 1011.3mb 3f
5:30am 20 43 mph 1011.3mb 3f
5:24am 21 31 mph 1011.3mb 4f
5:18am 18 25 mph 1011.1mb 3f
5:12am 20 24 mph 1011mb 3f
5:06am 20 31 mph 1010.9mb 4f
5:00am 20 25 mph 1010.8mb 4f
4:54am 17 22 mph 1010.6mb 4f
4:48am 16 25 mph 1010.6mb 4f
4:42am 20 25 mph 1010.5mb 4f
4:36am 22 26 mph 1010.5mb 5f
4:30am 16 23 mph 1010.4mb 5f
4:24am 16 24 mph 1010.3mb 5f
4:18am 21 26 mph 1010.2mb 5f
4:12am 14 22 mph 1010.1mb 6f
4:06am 20 24 mph 1010mb 6f
4:00am 17 23 mph 1009.9mb 6f
3:54am 17 22 mph 1009.8mb 6f
3:48am 15 24 mph 1009.7mb 7f
3:42am 18 32 mph 1009.6mb 7f
3:36am 20 30 mph 1009.5mb 8f
3:30am 25 33 mph 1009.4mb 8f
3:24am 21 31 mph 1009.3mb 8f
3:18am 17 25 mph 1009.1mb 8f
3:12am 18 33 mph 1008.9mb 9f
3:06am 24 43 mph 1008.9mb 9f
3:00am 23 38 mph 1008.8mb 9f
2:54am 17 25 mph 1008.7mb 10f
2:48am 20 25 mph 1008.6mb 9f
2:42am 17 28 mph 1008.5mb 10f
2:36am 20 25 mph 1008.5mb 10f
2:30am 21 26 mph 1008.3mb 11f
2:24am 22 28 mph 1008.2mb 11f
2:18am 22 28 mph 1008mb 11f
2:12am 23 29 mph 1007.9mb 12f
2:06am 22 28 mph 1007.8mb 12f
2:00am 26 31 mph 1007.6mb 13f
1:54am 22 30 mph 1007.5mb 14f
1:48am 21 25 mph 1007.3mb 14f
1:42am 24 29 mph 1007.2mb 15f
1:36am 26 33 mph 1007mb 15f
1:30am 29 39 mph 1006.9mb 15f
1:24am 25 34 mph 1006.8mb 16f
1:18am 25 32 mph 1006.7mb 15f
1:12am 22 28 mph 1006.6mb 15f
1:06am 24 31 mph 1006.5mb 16f
1:00am 23 32 mph 1006.3mb 16f
12:54am 21 30 mph 1006.1mb 16f
12:48am 21 30 mph 1005.8mb -
12:42am 24 32 mph 1005.6mb -
12:36am 29 34 mph 1005.4mb -
12:30am 26 34 mph 1005.2mb 17f
12:24am 26 32 mph 1005.1mb 18f
12:18am 30 34 mph 1004.9mb 19f
12:12am 25 31 mph 1004.7mb 19f
12:06am 26 36 mph 1004.6mb 20f
12:00am 25 33 mph 1004.3mb 20f
Mon 12/11 11:54pm 28 37 mph 1003.9mb 20f
11:48pm 23 31 mph 1003.5mb 21f
11:42pm 25 37 mph 1003.2mb 22f
11:36pm 26 37 mph 1003.1mb 22f
11:30pm 23 30 mph 1002.9mb 23f
11:24pm 25 31 mph 1002.9mb 23f
11:18pm 21 29 mph 1003mb 23f
11:12pm 21 30 mph 1003.1mb 23f
11:06pm 23 30 mph 1003.3mb 22f
11:00pm 16 24 mph 1003.5mb 22f
10:54pm 14 20 mph 1003.6mb 22f
10:48pm 13 16 mph 1003.7mb 21f
10:42pm 11 15 mph 1003.8mb 21f
10:36pm 8 10 mph 1003.9mb 20f
10:30pm 6 8 mph 1003.9mb 20f
10:24pm 6 7 mph 1003.9mb 20f
10:18pm 6 7 mph 1003.9mb 20f
10:12pm 3 6 mph 1003.9mb 20f
10:06pm 2 3 mph 1003.9mb 20f
10:00pm 2 3 mph 1003.9mb 20f
9:54pm 2 2 mph 1003.8mb 19f
9:48pm  -  1 mph 1003.9mb 19f
9:42pm  -  1 mph 1003.9mb 19f
9:36pm  -  1 mph 1004mb 19f
9:30pm  -  1 mph 1004mb 19f
9:24pm  -  3 mph 1004mb 19f
9:18pm 2 3 mph 1004mb 19f
9:12pm 2 5 mph 1004mb 19f
9:06pm 2 5 mph 1004.2mb 19f
9:00pm 2 3 mph 1004.2mb 19f
8:54pm 2 3 mph 1004.3mb 19f
8:48pm 1 3 mph 1004.3mb 19f
8:42pm 2 5 mph 1004.4mb 19f
8:36pm 3 6 mph 1004.4mb 19f
8:30pm 2 6 mph 1004.4mb 19f
8:24pm 3 7 mph 1004.5mb 19f
8:18pm 2 5 mph 1004.6mb 19f
8:12pm 2 3 mph 1004.6mb 19f
8:06pm  -  1 mph 1004.7mb 19f
8:00pm  -  2 mph 1004.7mb 19f
7:54pm  -  3 mph 1004.8mb 19f
7:48pm 2 3 mph 1004.8mb 19f
7:42pm 2 5 mph 1004.8mb 19f
7:36pm 2 5 mph 1004.8mb 19f
7:30pm 2 5 mph 1004.9mb 20f
7:24pm 2 5 mph 1005mb 19f
7:18pm 2 2 mph 1005.1mb 19f
7:12pm 1 2 mph 1005.2mb 19f
7:06pm 1 2 mph 1005.2mb 19f
7:00pm 1 2 mph 1005.2mb 19f
6:54pm 1 3 mph 1005.3mb 19f
6:48pm  -  2 mph 1005.3mb 19f
6:42pm 2 3 mph 1005.4mb 19f
6:36pm 1 2 mph 1005.5mb 19f
6:30pm 1 2 mph 1005.6mb 19f
6:24pm 2 3 mph 1005.6mb 19f
6:18pm 1 5 mph 1005.6mb -
6:12pm 3 5 mph 1005.6mb -
6:06pm 2 3 mph 1005.6mb -
6:00pm  -  3 mph 1005.6mb 20f
5:54pm  -  2 mph 1005.6mb 20f
5:48pm 1 5 mph 1005.7mb 19f
5:42pm 5 7 mph 1005.7mb 19f
5:36pm 5 6 mph 1005.7mb 20f
5:30pm 1 5 mph 1005.8mb 20f
5:24pm 2 6 mph 1005.9mb 20f
5:18pm 6 9 mph 1005.9mb 20f
5:12pm 5 9 mph 1005.9mb 20f
5:06pm 5 8 mph 1006mb 20f
5:00pm 6 7 mph 1006.1mb 19f
4:54pm 6 8 mph 1006.2mb 19f
4:48pm 5 7 mph 1006.3mb 19f
4:42pm 5 7 mph 1006.4mb 20f
4:36pm 2 5 mph 1006.5mb 20f
4:30pm 2 5 mph 1006.5mb 20f
4:24pm 3 5 mph 1006.5mb 19f
4:18pm 2 5 mph 1006.6mb 19f
4:12pm 3 6 mph 1006.6mb 19f
4:06pm 5 8 mph 1006.6mb 19f
4:00pm 5 6 mph 1006.6mb 19f
3:54pm 3 7 mph 1006.7mb 19f
3:48pm 5 8 mph 1006.9mb 19f
3:42pm 6 8 mph 1007mb 20f
3:36pm 3 5 mph 1007.1mb 20f
3:30pm 3 5 mph 1007.1mb 20f
3:24pm 1 5 mph 1007.1mb 20f
3:18pm 2 6 mph 1007.2mb 20f
3:12pm 5 6 mph 1007.2mb 20f
3:06pm 5 6 mph 1007.3mb 20f
3:00pm 2 6 mph 1007.5mb 20f
2:54pm 3 6 mph 1007.6mb 20f
2:48pm 3 6 mph 1007.7mb 20f
2:42pm 5 6 mph 1007.7mb 20f
2:36pm 3 7 mph 1007.8mb 19f
2:30pm 6 8 mph 1007.8mb 19f
2:24pm 3 7 mph 1007.8mb 19f
2:18pm 5 7 mph 1007.9mb 19f
2:12pm 3 7 mph 1008mb 19f
2:06pm 6 8 mph 1008mb 19f
2:00pm 6 8 mph 1008.1mb 19f
1:54pm 5 8 mph 1008.1mb 19f
1:48pm 7 9 mph 1008.2mb 19f
1:42pm 6 10 mph 1008.3mb 19f
1:36pm 7 10 mph 1008.3mb 19f
1:30pm 8 10 mph 1008.4mb 19f
1:24pm 8 13 mph 1008.5mb 19f
1:18pm 8 13 mph 1008.5mb 19f
1:12pm 7 11 mph 1008.7mb 19f
1:06pm 6 11 mph 1008.8mb 19f
1:00pm 8 11 mph 1008.9mb 18f
12:54pm 5 7 mph 1009.1mb 18f
12:48pm 5 7 mph 1009.3mb 18f
12:42pm 5 8 mph 1009.5mb 17f
12:36pm 7 9 mph 1009.7mb 17f
12:30pm 5 8 mph 1009.9mb 17f
12:24pm 6 9 mph 1010.1mb 17f
12:18pm 6 8 mph 1010.2mb 16f
12:12pm 6 9 mph 1010.3mb 16f
12:06pm 6 10 mph 1010.5mb 17f
12:00pm 6 10 mph 1010.6mb 17f
11:54am 6 9 mph 1010.8mb 16f
11:48am 6 10 mph 1010.8mb 16f
11:42am 7 10 mph 1010.9mb 16f
11:36am 6 9 mph 1011mb 16f
11:30am 8 10 mph 1011.1mb 15f
11:24am 6 9 mph 1011.2mb 15f
11:18am 7 9 mph 1011.3mb 15f
11:12am 6 11 mph 1011.5mb 16f
11:06am 7 11 mph 1011.7mb 16f
11:00am 8 11 mph 1011.8mb 15f
10:54am 6 8 mph 1011.9mb 15f
10:48am 8 9 mph 1012.1mb 15f
10:42am 6 9 mph 1012.3mb 15f
10:36am 6 10 mph 1012.5mb 15f
10:30am 7 14 mph 1012.7mb 15f
10:24am 8 14 mph 1012.9mb 14f
10:18am 7 11 mph 1013mb 14f
10:12am 8 13 mph 1013.2mb 14f
10:06am 8 13 mph 1013.2mb 14f
10:00am 9 14 mph 1013.3mb 13f
9:54am 6 9 mph 1013.3mb 13f
9:48am 5 10 mph 1013.2mb 13f
9:42am 5 10 mph 1013.2mb 13f
9:36am 6 11 mph 1013.2mb 12f
9:30am 8 11 mph 1013.4mb 12f
9:24am 8 10 mph 1013.6mb 12f
9:18am 6 9 mph 1013.7mb 12f
9:12am 6 10 mph 1014mb 11f
9:06am 7 10 mph 1014.1mb 11f
9:00am 6 8 mph 1014.2mb 11f
8:54am 7 10 mph 1014.3mb 11f
8:48am 6 9 mph 1014.4mb 11f
8:42am 6 10 mph 1014.4mb 11f
8:36am 5 8 mph 1014.5mb 10f
8:30am 5 6 mph 1014.5mb 10f
8:24am 6 9 mph 1014.6mb 10f
8:18am 6 9 mph 1014.6mb 10f
8:12am 5 8 mph 1014.6mb 10f
8:06am 5 6 mph 1014.5mb 9f
8:00am 5 7 mph 1014.6mb 9f
7:54am 2 6 mph 1014.7mb 9f
7:48am 3 6 mph 1014.7mb 9f
7:42am 3 7 mph 1014.7mb 9f
7:36am 3 6 mph 1014.6mb 9f
7:30am 5 9 mph 1014.6mb 8f
7:24am 3 6 mph 1014.6mb 8f
7:18am 5 7 mph 1014.6mb 8f
7:12am 5 9 mph 1014.7mb 8f
7:06am 3 8 mph 1014.7mb 8f
7:00am 5 8 mph 1014.7mb 8f
6:54am 5 7 mph 1014.8mb 8f
6:48am 6 9 mph 1014.8mb 8f
6:42am 3 7 mph 1014.8mb 8f
6:36am 3 5 mph 1014.9mb 8f
6:30am 5 7 mph 1015mb 8f
6:24am 5 6 mph 1015mb 7f
6:18am 3 8 mph 1015.1mb 7f
6:12am 5 8 mph 1015.1mb 7f
6:06am 6 8 mph 1015.3mb 7f
6:00am 5 7 mph 1015.4mb 7f
5:54am 6 8 mph 1015.5mb 7f
5:48am 5 7 mph 1015.6mb 6f
5:42am 6 10 mph 1015.6mb 6f
5:36am 6 8 mph 1015.7mb 6f
5:30am 6 8 mph 1015.4mb 6f
5:24am 5 9 mph 1015.4mb 6f
5:18am 5 7 mph 1015.5mb 6f
5:12am 3 8 mph 1015.5mb 6f
5:06am 6 8 mph 1015.3mb 6f
5:00am 5 7 mph 1015.3mb 6f
4:54am 5 7 mph 1015.2mb 6f
4:48am 5 8 mph 1015.1mb 6f
4:42am 6 8 mph 1015.2mb 5f
4:36am 5 9 mph 1015.3mb 5f
4:30am 6 9 mph 1015.2mb 5f
4:24am 6 7 mph 1015.2mb 5f
4:18am 5 7 mph 1015.3mb 5f
4:12am 6 9 mph 1015.3mb 5f
4:06am 8 10 mph 1015.2mb 5f
4:00am 8 9 mph 1015.2mb 5f
3:54am 5 6 mph 1015.3mb 5f
3:48am 5 7 mph 1015.4mb 5f
3:42am 3 5 mph 1015.2mb 5f
3:36am 5 6 mph 1015.4mb 5f
3:30am 2 3 mph 1015.6mb 5f
3:24am 1 2 mph 1015.8mb 5f
3:18am 2 3 mph 1015.8mb 5f
3:12am 2 2 mph 1015.9mb 5f
3:06am 1 3 mph 1016.1mb 5f
3:00am 3 6 mph 1016mb 5f
2:54am 3 6 mph 1016mb 5f
2:48am 3 5 mph 1016.2mb 5f
2:42am 3 6 mph 1016.3mb 6f
2:36am 3 6 mph 1016.4mb 6f
2:30am 5 7 mph 1016.6mb 6f
2:24am 6 7 mph 1016.7mb 6f
2:18am 3 7 mph 1016.8mb 6f
2:12am 5 6 mph 1016.7mb 6f
2:06am 6 7 mph 1016.7mb 6f
2:00am 7 9 mph 1016.6mb 6f
1:54am 5 8 mph 1016.7mb 7f
1:48am 5 8 mph 1016.7mb 6f
1:42am 6 8 mph 1016.7mb 7f
1:36am 6 8 mph 1016.7mb 6f
1:30am 2 9 mph 1016.6mb 6f
1:24am 6 9 mph 1016.5mb 6f
1:18am 5 7 mph 1016.5mb 6f
1:12am 6 7 mph 1016.4mb 7f
1:06am 6 9 mph 1016.6mb 7f
1:00am 5 6 mph 1016.6mb 7f
12:54am 6 8 mph 1016.7mb 7f
12:48am 5 6 mph 1016.7mb -
12:42am 3 5 mph 1016.8mb -
12:36am 3 5 mph 1016.7mb -
12:30am 3 5 mph 1016.6mb 7f
12:24am 3 5 mph 1016.6mb 7f
12:18am 2 5 mph 1016.5mb 7f
12:12am 5 6 mph 1016.3mb 7f
12:06am 5 6 mph 1016.2mb 7f
12:00am 5 6 mph 1016.2mb 7f
Sun 12/10 11:54pm 5 8 mph 1016.1mb 7f
11:48pm 6 7 mph 1016.1mb 7f
11:42pm 3 5 mph 1016.1mb 7f
11:36pm 2 5 mph 1016.2mb 7f
11:30pm 3 6 mph 1016.1mb 7f
11:24pm 5 6 mph 1016.2mb 7f
11:18pm 3 6 mph 1016.2mb 7f
11:12pm 3 5 mph 1016.2mb 7f
11:06pm 3 6 mph 1016.2mb 7f
11:00pm 3 7 mph 1016.2mb 8f
10:54pm 5 8 mph 1016.2mb 8f
10:48pm 6 8 mph 1016.2mb 8f
10:42pm 5 6 mph 1016.1mb 8f
10:36pm 3 10 mph 1016mb 8f
10:30pm 7 9 mph 1015.9mb 9f
10:24pm 6 7 mph 1015.9mb 9f
10:18pm 6 9 mph 1015.8mb 8f
10:12pm 6 9 mph 1015.8mb 8f
10:06pm 6 8 mph 1015.8mb 8f
10:00pm 7 9 mph 1015.9mb 8f
9:54pm 7 10 mph 1016mb 8f
9:48pm 8 10 mph 1016mb 9f
9:42pm 5 10 mph 1016mb 9f
9:36pm 8 10 mph 1016mb 8f
9:30pm 5 8 mph 1016.1mb 9f
9:24pm 8 9 mph 1016mb 8f
9:18pm 6 8 mph 1015.9mb 8f
9:12pm 6 10 mph 1016mb 8f
9:06pm 5 7 mph 1015.8mb 8f
9:00pm 5 8 mph 1015.6mb 8f
8:54pm 6 9 mph 1015.5mb 8f
8:48pm 6 9 mph 1015.5mb 8f
8:42pm 6 9 mph 1015.5mb 8f
8:36pm 7 13 mph 1015.5mb 8f
8:30pm 10 15 mph 1015.5mb 8f
8:24pm 8 14 mph 1015.5mb 8f
8:18pm 11 14 mph 1015.6mb 8f
8:12pm 7 10 mph 1015.6mb 8f
8:06pm 7 13 mph 1015.5mb 8f
8:00pm 7 11 mph 1015.6mb 9f
7:54pm 7 11 mph 1015.7mb 9f
7:48pm 7 10 mph - -
7:42pm 7 11 mph 1015.7mb 9f
7:36pm 6 10 mph 1015.6mb 10f
7:30pm 5 9 mph 1015.6mb 10f
7:24pm 7 10 mph 1015.5mb 10f
7:18pm 6 10 mph 1015.5mb 10f
7:12pm 6 10 mph 1015.4mb 10f
7:06pm 6 9 mph 1015.3mb 11f
7:00pm 6 9 mph 1015.2mb 11f
6:54pm 8 14 mph 1015.1mb 12f
6:48pm 9 14 mph 1015mb 13f
6:42pm 7 14 mph 1014.9mb 13f
6:36pm 5 8 mph 1014.9mb 12f
6:30pm 8 11 mph 1014.8mb 12f
6:24pm 6 9 mph 1014.8mb 12f
6:18pm 5 10 mph 1014.7mb 12f
6:12pm 6 9 mph 1014.5mb 11f
6:06pm 7 9 mph 1014.4mb 11f
6:00pm 6 9 mph 1014.3mb 12f
5:54pm 6 10 mph 1014.3mb 12f
5:48pm 6 9 mph 1014.2mb 12f
5:42pm 8 14 mph 1014.1mb 13f
5:36pm 11 16 mph 1014.2mb 13f
5:30pm 11 17 mph 1014.2mb 13f
5:24pm 14 18 mph 1014.1mb 13f
5:18pm 13 17 mph 1014mb 13f
5:12pm 14 18 mph 1013.8mb 13f
5:06pm 15 18 mph 1013.6mb 13f
5:00pm 15 20 mph 1013.4mb 14f
4:54pm 16 20 mph 1013.3mb 13f
4:48pm 13 18 mph 1013.1mb 14f
4:42pm 16 20 mph 1013mb 14f
4:36pm 14 18 mph 1012.9mb 14f
4:30pm 14 17 mph 1012.7mb 15f
4:24pm 15 18 mph 1012.6mb 14f
4:18pm 16 20 mph 1012.4mb 15f
4:12pm 16 20 mph 1012.3mb 15f
4:06pm 15 20 mph 1012.2mb 15f
4:00pm 10 17 mph 1012mb 16f
3:54pm 13 17 mph 1011.8mb 16f
3:48pm 15 18 mph 1011.7mb 16f
3:42pm 14 18 mph 1011.6mb 16f
3:36pm 16 21 mph 1011.5mb 16f
3:30pm 17 22 mph 1011.4mb 17f
3:24pm 15 22 mph 1011.3mb 17f
3:18pm 16 21 mph 1011.2mb 17f
3:12pm 16 21 mph 1011mb 17f
3:06pm 18 23 mph 1010.8mb 17f
3:00pm 15 24 mph 1010.8mb 17f
2:54pm 16 23 mph 1010.7mb 17f
2:48pm 20 24 mph 1010.6mb 17f
2:42pm 13 20 mph 1010.5mb 18f
2:36pm 14 20 mph 1010.4mb 18f
2:30pm 16 21 mph 1010.2mb 18f
2:24pm 16 21 mph 1010.1mb 18f
2:18pm 14 20 mph 1010mb 18f
2:12pm 14 20 mph 1009.9mb 19f
2:06pm 14 17 mph 1009.8mb 18f
2:00pm 9 14 mph 1009.7mb 18f
1:54pm 11 15 mph 1009.6mb 18f
1:48pm 10 17 mph 1009.6mb 18f
1:42pm 10 14 mph 1009.5mb 18f
1:36pm 9 14 mph 1009.5mb 19f
1:30pm 11 15 mph 1009.4mb 18f
1:24pm 9 14 mph 1009.3mb 19f
1:18pm 14 16 mph 1009.3mb 18f
1:12pm 13 16 mph 1009.2mb 19f
1:06pm 13 16 mph 1009.1mb 19f
1:00pm 11 17 mph 1009mb 19f
12:54pm 11 16 mph 1009mb 19f
12:48pm 10 16 mph 1008.9mb 19f
12:42pm 11 15 mph 1008.8mb 20f
12:36pm 13 15 mph 1008.7mb 19f
12:30pm 10 16 mph 1008.7mb 20f
12:24pm 13 17 mph 1008.6mb 19f
12:18pm 14 17 mph 1008.5mb 20f
12:12pm 14 20 mph 1008.5mb 20f
12:06pm 13 17 mph 1008.4mb 20f
12:00pm 14 17 mph 1008.4mb 20f
11:54am 13 16 mph 1008.4mb 20f
11:48am 9 11 mph 1008.4mb 19f
11:42am 10 17 mph 1008.5mb 19f
11:36am 14 16 mph 1008.4mb 19f
11:30am 11 17 mph 1008.4mb 19f
11:24am 15 18 mph 1008.5mb 19f
11:18am 14 20 mph 1008.4mb 19f
11:12am 14 18 mph 1008.3mb 19f
11:06am 13 17 mph 1008.3mb 19f
11:00am 10 17 mph 1008.2mb 19f
10:54am 10 17 mph 1008.1mb 19f
10:48am 10 15 mph 1008.2mb 19f
10:42am 8 14 mph 1008.2mb 19f
10:36am 10 16 mph 1008.1mb 19f
10:30am 11 16 mph 1008.2mb 19f
10:24am 13 16 mph 1008.1mb 19f
10:18am 11 15 mph 1008mb 19f
10:12am 13 16 mph 1008mb 19f
10:06am 7 14 mph 1008mb 20f
10:00am 7 10 mph 1008mb 20f
9:54am 8 10 mph 1007.9mb 19f
9:48am 8 10 mph 1007.9mb 19f
9:42am 7 10 mph 1007.8mb 20f
9:36am 8 11 mph 1007.6mb 20f
9:30am 7 11 mph 1007.4mb 20f
9:24am 6 11 mph 1007.5mb 20f
9:18am 6 11 mph 1007.4mb 20f
9:12am 10 14 mph 1007.2mb 20f
9:06am 9 15 mph 1007.2mb 20f
9:00am 10 15 mph 1007.2mb 21f
8:54am 13 15 mph 1007.1mb 20f
8:48am 11 15 mph 1006.8mb 20f
8:42am 11 15 mph 1006.7mb 20f
8:36am 9 14 mph 1006.6mb 20f
8:30am 11 15 mph 1006.5mb 20f
8:24am 9 14 mph 1006.5mb 19f
8:18am 9 14 mph 1006.5mb 20f
8:12am 9 14 mph 1006.5mb 20f
8:06am 9 13 mph 1006.5mb 19f
8:00am 8 11 mph 1006.6mb 20f
7:54am 9 11 mph 1006.6mb 20f
7:48am 9 16 mph 1006.5mb 20f
7:42am 9 14 mph 1006.4mb 20f
7:36am 9 15 mph 1006.3mb 20f
7:30am 9 15 mph 1006.2mb 20f
7:24am 8 16 mph 1006.2mb 20f
7:18am 8 14 mph 1006.2mb 20f
7:12am 10 16 mph 1006.2mb 20f
7:06am 10 15 mph 1006.2mb 20f
7:00am 10 15 mph 1006.2mb 20f
6:54am 9 15 mph 1006.3mb 20f
6:48am 7 10 mph 1006.2mb 19f
6:42am 9 13 mph 1006.4mb 19f
6:36am 9 15 mph 1006.4mb 19f
6:30am 8 14 mph 1006.4mb 19f
6:24am 11 16 mph 1006.4mb 19f
6:18am 11 15 mph 1006.5mb 19f
6:12am 8 13 mph 1006.5mb 19f
6:06am 9 14 mph 1006.5mb 19f
6:00am 8 13 mph 1006.5mb 19f
5:54am 9 16 mph 1006.6mb 18f
5:48am 10 16 mph 1006.5mb 18f
5:42am 8 13 mph 1006.5mb 19f
5:36am 9 14 mph 1006.6mb 18f
5:30am 7 14 mph 1006.6mb 18f
5:24am 8 13 mph 1006.6mb 18f
5:18am 8 13 mph 1006.7mb 18f
5:12am 7 11 mph 1006.7mb 18f
5:06am 9 11 mph 1006.8mb 18f
5:00am 7 15 mph 1006.9mb 18f
4:54am 8 17 mph 1006.9mb 18f
4:48am 7 13 mph 1007mb 19f
4:42am 9 15 mph 1007mb 18f
4:36am 9 16 mph 1007mb 19f
4:30am 10 18 mph 1007.1mb 18f
4:24am 8 14 mph 1007.2mb 19f
4:18am  -  mph 1007.1mb 18f
4:12am  -  mph 1007.1mb 18f
4:06am  -  mph 1007.2mb 18f
4:00am 13 20 mph 1007.2mb 19f
3:54am 10 16 mph 1007.2mb 19f
3:48am 10 15 mph 1007.1mb 18f
3:42am 9 18 mph 1007.1mb 18f
3:36am 9 14 mph 1007.1mb 18f
3:30am 10 16 mph 1007.1mb 18f
3:24am 7 15 mph 1007.1mb 18f
3:18am 7 15 mph 1007.3mb 18f
3:12am 8 10 mph 1007.4mb 18f
3:06am 7 11 mph 1007.4mb 18f
3:00am 8 13 mph 1007.5mb 18f
2:54am 8 11 mph 1007.5mb 18f
2:48am 7 13 mph 1007.6mb 18f
2:42am 6 13 mph 1007.7mb 18f
2:36am 6 13 mph 1007.7mb 18f
2:30am 7 14 mph 1007.8mb 18f
2:24am 7 13 mph 1007.9mb 18f
2:18am 7 13 mph 1008mb 18f
2:12am 6 13 mph 1008.1mb 18f
2:06am 6 9 mph 1008.2mb 18f
2:00am 7 9 mph 1008.2mb 18f
1:54am 6 11 mph 1008.3mb 18f
1:48am 7 14 mph 1008.3mb 18f
1:42am 7 13 mph 1008.4mb 18f
1:36am 7 13 mph 1008.4mb 18f
1:30am 7 11 mph 1008.4mb 18f
1:12am 8 13 mph 1008.5mb 18f
1:06am 7 13 mph 1008.6mb 18f
1:00am 7 13 mph 1008.6mb 18f
12:54am 6 14 mph 1008.8mb 18f
12:30am 6 10 mph 1008.9mb 18f
12:24am 8 13 mph 1009mb 18f
12:18am 6 9 mph 1009.2mb 18f
12:12am 5 9 mph 1009.2mb 18f
12:06am 5 10 mph 1009.3mb 18f
12:00am 5 8 mph 1009.4mb 18f
Sat 12/09 11:54pm 5 7 mph 1009.5mb 18f
11:48pm 5 8 mph 1009.5mb -
11:42pm 6 9 mph 1009.6mb -
11:36pm 6 7 mph 1009.6mb -
11:30pm 5 7 mph 1009.8mb 17f
11:24pm 5 8 mph 1009.9mb 17f
11:18pm 5 8 mph 1010mb 17f
11:12pm 5 6 mph 1010.1mb 18f
11:06pm 5 6 mph 1010.3mb 17f
11:00pm 5 6 mph 1010.3mb 18f
10:54pm 5 8 mph 1010.4mb 18f
10:48pm 3 5 mph 1010.5mb 18f
10:42pm 3 5 mph 1010.6mb 18f
10:36pm 3 6 mph 1010.7mb 18f
10:30pm 3 6 mph 1010.9mb 18f
10:24pm 5 6 mph 1010.8mb 18f
10:18pm 3 5 mph 1010.8mb 18f
10:12pm 3 5 mph 1010.8mb 18f
10:06pm 3 5 mph 1010.7mb 18f
10:00pm 3 6 mph 1010.7mb 18f
9:54pm 5 6 mph 1010.8mb 18f
9:48pm 6 7 mph 1011mb 18f
9:42pm 6 7 mph 1011mb 19f
9:36pm 6 9 mph 1011mb 18f
9:30pm 6 8 mph 1010.9mb 19f
9:24pm 5 9 mph 1010.8mb 19f
9:18pm 6 8 mph 1010.8mb 19f
9:12pm 7 14 mph 1010.9mb 19f
9:06pm 7 10 mph 1010.9mb 19f
9:00pm 10 15 mph 1011mb 20f
8:54pm 10 13 mph 1011mb 19f
8:48pm 10 13 mph 1011mb 19f
8:42pm 9 13 mph 1011mb 19f
8:36pm 10 15 mph 1011.1mb 19f
8:30pm 14 17 mph 1011.2mb 19f
8:24pm 9 15 mph 1011.2mb 20f
8:18pm 11 16 mph 1011.2mb 20f
8:12pm 11 17 mph 1011.1mb 20f
8:06pm 11 18 mph 1011.2mb 20f
8:00pm 10 16 mph 1011.2mb 20f
7:54pm 11 16 mph 1011.2mb 20f
7:48pm 14 20 mph 1011.2mb 20f
7:42pm 16 20 mph 1011.2mb 20f
7:36pm 17 21 mph 1011.2mb 20f
7:30pm 10 17 mph 1011.2mb 20f
7:24pm 14 21 mph 1011.2mb 20f
7:18pm 14 18 mph 1011.3mb 20f